createdAt,value
2018-07-04T00:00:39.607Z,99.90
2018-07-04T00:01:55.163Z,99.90
2018-07-04T00:03:10.663Z,99.90
2018-07-04T00:04:26.258Z,99.90
2018-07-04T00:05:41.645Z,99.90
2018-07-04T00:06:57.023Z,99.90
2018-07-04T00:08:12.412Z,99.90
2018-07-04T00:09:27.913Z,99.90
2018-07-04T00:10:43.434Z,99.90
2018-07-04T00:11:58.812Z,99.90
2018-07-04T00:13:14.059Z,99.90
2018-07-04T00:14:29.249Z,99.90
2018-07-04T00:15:44.679Z,99.90
2018-07-04T00:17:00.143Z,99.90
2018-07-04T00:18:15.498Z,99.90
2018-07-04T00:19:30.918Z,99.90
2018-07-04T00:20:46.489Z,99.90
2018-07-04T00:22:01.834Z,99.90
2018-07-04T00:23:17.195Z,99.90
2018-07-04T00:24:32.799Z,99.90
2018-07-04T00:25:48.244Z,99.90
2018-07-04T00:27:03.506Z,99.90
2018-07-04T00:28:18.882Z,99.90
2018-07-04T00:29:34.306Z,99.90
2018-07-04T00:30:49.537Z,99.90
2018-07-04T00:32:04.904Z,99.90
2018-07-04T00:33:20.211Z,99.90
2018-07-04T00:34:35.660Z,99.90
2018-07-04T00:35:50.995Z,99.90
2018-07-04T00:37:06.304Z,99.90
2018-07-04T00:38:21.579Z,99.90
2018-07-04T00:39:36.972Z,99.90
2018-07-04T00:40:52.421Z,99.90
2018-07-04T00:42:07.714Z,99.90
2018-07-04T00:43:23.192Z,99.90
2018-07-04T00:44:38.493Z,99.90
2018-07-04T00:45:53.930Z,99.90
2018-07-04T00:47:09.298Z,99.90
2018-07-04T00:48:24.598Z,99.90
2018-07-04T00:49:40.110Z,99.90
2018-07-04T00:50:55.652Z,99.90
2018-07-04T00:52:10.986Z,99.90
2018-07-04T00:53:26.317Z,99.90
2018-07-04T00:54:41.598Z,99.90
2018-07-04T00:55:56.904Z,99.90
2018-07-04T00:57:12.310Z,99.90
2018-07-04T00:58:27.623Z,99.90
2018-07-04T00:59:43.082Z,99.90
2018-07-04T01:00:58.420Z,99.90
2018-07-04T01:02:13.903Z,99.90
2018-07-04T01:03:29.398Z,99.90
2018-07-04T01:04:44.821Z,99.90
2018-07-04T01:06:00.227Z,99.90
2018-07-04T01:07:15.644Z,99.90
2018-07-04T01:08:31.029Z,99.90
2018-07-04T01:09:46.410Z,99.90
2018-07-04T01:11:01.976Z,99.90
2018-07-04T01:12:17.595Z,99.90
2018-07-04T01:13:33.140Z,99.90
2018-07-04T01:14:48.687Z,99.90
2018-07-04T01:16:04.017Z,99.90
2018-07-04T01:17:19.378Z,99.90
2018-07-04T01:18:34.705Z,99.90
2018-07-04T01:19:50.088Z,99.90
2018-07-04T01:21:11.035Z,99.90
2018-07-04T01:22:26.407Z,99.90
2018-07-04T01:23:41.695Z,99.90
2018-07-04T01:24:57.172Z,99.90
2018-07-04T01:26:12.619Z,99.90
2018-07-04T01:27:28.121Z,99.90
2018-07-04T01:28:49.679Z,99.90
2018-07-04T01:30:05.074Z,99.90
2018-07-04T01:31:20.427Z,99.90
2018-07-04T01:32:35.763Z,99.90
2018-07-04T01:33:51.280Z,99.90
2018-07-04T01:35:06.603Z,99.90
2018-07-04T01:36:22.071Z,99.90
2018-07-04T01:37:37.382Z,99.90
2018-07-04T01:38:52.733Z,99.90
2018-07-04T01:40:08.003Z,99.90
2018-07-04T01:41:23.489Z,99.90
2018-07-04T01:42:38.949Z,99.90
2018-07-04T01:43:54.306Z,99.90
2018-07-04T01:45:09.824Z,99.90
2018-07-04T01:46:25.099Z,99.90
2018-07-04T01:47:40.660Z,99.90
2018-07-04T01:48:55.975Z,99.90
2018-07-04T01:50:11.348Z,99.90
2018-07-04T01:51:26.811Z,99.90
2018-07-04T01:52:42.199Z,99.90
2018-07-04T01:53:57.566Z,99.90
2018-07-04T01:55:13.029Z,99.90
2018-07-04T01:56:28.419Z,99.90
2018-07-04T01:57:43.791Z,99.90
2018-07-04T01:58:59.240Z,99.90
2018-07-04T02:00:14.743Z,99.90
2018-07-04T02:01:30.182Z,99.90
2018-07-04T02:02:45.634Z,99.90
2018-07-04T02:04:01.065Z,99.90
2018-07-04T02:05:16.605Z,99.90
2018-07-04T02:06:32.049Z,99.90
2018-07-04T02:07:47.531Z,99.90
2018-07-04T02:09:03.204Z,99.90
2018-07-04T02:10:18.497Z,99.90
2018-07-04T02:11:33.916Z,99.90
2018-07-04T02:12:49.403Z,99.90
2018-07-04T02:14:04.773Z,99.90
2018-07-04T02:15:20.222Z,99.90
2018-07-04T02:16:35.590Z,99.90
2018-07-04T02:17:51.074Z,99.90
2018-07-04T02:19:06.458Z,99.90
2018-07-04T02:20:21.820Z,99.90
2018-07-04T02:21:37.286Z,99.90
2018-07-04T02:22:52.707Z,99.90
2018-07-04T02:24:07.983Z,99.90
2018-07-04T02:25:23.282Z,99.90
2018-07-04T02:26:38.707Z,99.90
2018-07-04T02:27:54.051Z,99.90
2018-07-04T02:29:09.494Z,99.90
2018-07-04T02:30:24.787Z,99.90
2018-07-04T02:31:40.271Z,99.90
2018-07-04T02:32:55.716Z,99.90
2018-07-04T02:34:11.119Z,99.90
2018-07-04T02:35:26.610Z,99.90
2018-07-04T02:36:41.938Z,99.90
2018-07-04T02:37:57.207Z,99.90
2018-07-04T02:39:12.502Z,99.90
2018-07-04T02:40:27.888Z,99.90
2018-07-04T02:41:43.123Z,99.90
2018-07-04T02:42:59.077Z,99.90
2018-07-04T02:44:14.519Z,99.90
2018-07-04T02:45:29.981Z,99.90
2018-07-04T02:46:45.387Z,99.90
2018-07-04T02:48:00.621Z,99.90
2018-07-04T02:49:15.837Z,99.90
2018-07-04T02:50:31.377Z,99.90
2018-07-04T02:51:46.913Z,99.90
2018-07-04T02:53:02.281Z,99.90
2018-07-04T02:54:17.734Z,99.90
2018-07-04T02:55:33.247Z,99.90
2018-07-04T02:56:48.784Z,99.90
2018-07-04T02:58:04.135Z,99.90
2018-07-04T02:59:19.478Z,99.90
2018-07-04T03:00:35.042Z,99.90
2018-07-04T03:01:50.434Z,99.90
2018-07-04T03:03:05.795Z,99.90
2018-07-04T03:04:21.118Z,99.90
2018-07-04T03:05:36.577Z,99.90
2018-07-04T03:06:52.018Z,99.90
2018-07-04T03:08:07.568Z,99.90
2018-07-04T03:09:22.963Z,99.90
2018-07-04T03:10:38.254Z,99.90
2018-07-04T03:11:53.629Z,99.90
2018-07-04T03:13:09.482Z,99.90
2018-07-04T03:14:25.075Z,99.90
2018-07-04T03:15:40.527Z,99.90
2018-07-04T03:16:55.935Z,99.90
2018-07-04T03:18:11.182Z,99.90
2018-07-04T03:19:26.582Z,99.90
2018-07-04T03:21:51.272Z,99.90
2018-07-04T03:23:06.654Z,99.90
2018-07-04T03:24:22.195Z,99.90
2018-07-04T03:25:37.479Z,99.90
2018-07-04T03:26:53.010Z,99.90
2018-07-04T03:28:08.807Z,99.90
2018-07-04T03:29:24.306Z,99.90
2018-07-04T03:30:39.850Z,99.90
2018-07-04T03:31:55.167Z,99.90
2018-07-04T03:33:10.514Z,99.90
2018-07-04T03:35:35.462Z,99.90
2018-07-04T03:36:50.805Z,99.90
2018-07-04T03:38:06.153Z,99.90
2018-07-04T03:39:21.537Z,99.90
2018-07-04T03:40:36.812Z,99.90
2018-07-04T03:41:52.176Z,99.90
2018-07-04T03:43:07.514Z,99.90
2018-07-04T03:44:22.793Z,99.90
2018-07-04T03:45:38.133Z,99.90
2018-07-04T03:46:53.430Z,99.90
2018-07-04T03:48:08.857Z,99.90
2018-07-04T03:49:24.245Z,99.90
2018-07-04T03:50:39.404Z,99.90
2018-07-04T03:51:54.977Z,99.90
2018-07-04T03:53:10.574Z,99.90
2018-07-04T03:54:26.068Z,99.90
2018-07-04T03:55:41.737Z,99.90
2018-07-04T03:56:57.062Z,99.90
2018-07-04T03:58:12.772Z,99.90
2018-07-04T03:59:28.206Z,99.90
2018-07-04T04:00:43.688Z,99.90
2018-07-04T04:01:58.992Z,99.90
2018-07-04T04:03:14.359Z,99.90
2018-07-04T04:04:29.752Z,99.90
2018-07-04T04:05:45.094Z,99.90
2018-07-04T04:07:00.491Z,99.90
2018-07-04T04:08:15.793Z,99.90
2018-07-04T04:09:31.127Z,99.90
2018-07-04T04:10:46.614Z,99.90
2018-07-04T04:12:02.140Z,99.90
2018-07-04T04:13:17.732Z,99.90
2018-07-04T04:14:33.023Z,99.90
2018-07-04T04:15:48.400Z,99.90
2018-07-04T04:17:03.867Z,99.90
2018-07-04T04:18:19.400Z,99.90
2018-07-04T04:19:35.347Z,99.90
2018-07-04T04:20:50.646Z,99.90
2018-07-04T04:22:05.924Z,99.90
2018-07-04T04:23:21.212Z,99.90
2018-07-04T04:24:36.404Z,99.90
2018-07-04T04:25:51.763Z,99.90
2018-07-04T04:27:07.133Z,99.90
2018-07-04T04:28:22.576Z,99.90
2018-07-04T04:29:37.999Z,99.90
2018-07-04T04:30:53.377Z,99.90
2018-07-04T04:32:08.896Z,99.90
2018-07-04T04:33:24.236Z,99.90
2018-07-04T04:34:39.682Z,99.90
2018-07-04T04:35:55.078Z,99.90
2018-07-04T04:37:10.512Z,99.90
2018-07-04T04:38:25.944Z,99.90
2018-07-04T04:39:41.566Z,99.90
2018-07-04T04:40:56.957Z,99.90
2018-07-04T04:42:12.385Z,99.90
2018-07-04T04:43:28.014Z,99.90
2018-07-04T04:44:43.439Z,99.90
2018-07-04T04:45:58.600Z,99.90
2018-07-04T04:47:13.915Z,99.90
2018-07-04T04:48:29.535Z,99.90
2018-07-04T04:49:44.864Z,99.90
2018-07-04T04:51:00.317Z,99.90
2018-07-04T04:52:15.801Z,99.90
2018-07-04T04:53:31.215Z,99.90
2018-07-04T04:54:46.531Z,99.90
2018-07-04T04:56:01.690Z,99.90
2018-07-04T04:57:16.987Z,99.90
2018-07-04T04:58:32.344Z,99.90
2018-07-04T04:59:47.701Z,99.90
2018-07-04T05:01:02.929Z,99.90
2018-07-04T05:02:18.222Z,99.90
2018-07-04T05:03:33.744Z,99.90
2018-07-04T05:04:49.214Z,99.90
2018-07-04T05:06:04.966Z,99.90
2018-07-04T05:07:20.451Z,99.90
2018-07-04T05:08:35.793Z,99.90
2018-07-04T05:09:51.243Z,99.90
2018-07-04T05:11:06.556Z,99.90
2018-07-04T05:12:22.013Z,99.90
2018-07-04T05:13:37.310Z,99.90
2018-07-04T05:14:52.882Z,99.90
2018-07-04T05:16:08.218Z,99.90
2018-07-04T05:17:23.653Z,99.90
2018-07-04T05:18:39.164Z,99.90
2018-07-04T05:19:54.631Z,99.90
2018-07-04T05:21:10.074Z,99.90
2018-07-04T05:22:25.491Z,99.90
2018-07-04T05:23:40.949Z,99.90
2018-07-04T05:24:56.257Z,99.90
2018-07-04T05:26:11.581Z,99.90
2018-07-04T05:27:26.917Z,99.90
2018-07-04T05:28:42.294Z,99.90
2018-07-04T05:29:57.605Z,99.90
2018-07-04T05:31:13.052Z,99.90
2018-07-04T05:32:28.494Z,99.90
2018-07-04T05:33:43.927Z,99.90
2018-07-04T05:34:59.203Z,99.90
2018-07-04T05:36:14.476Z,99.90
2018-07-04T05:37:30.039Z,99.90
2018-07-04T05:38:45.417Z,99.90
2018-07-04T05:40:00.699Z,99.90
2018-07-04T05:41:16.187Z,99.90
2018-07-04T05:42:31.453Z,99.90
2018-07-04T05:43:46.782Z,99.90
2018-07-04T05:45:02.069Z,99.90
2018-07-04T05:46:17.491Z,99.90
2018-07-04T05:47:32.962Z,99.90
2018-07-04T05:48:48.218Z,99.90
2018-07-04T05:50:03.527Z,99.90
2018-07-04T05:51:18.918Z,99.90
2018-07-04T05:52:34.354Z,99.90
2018-07-04T05:53:49.973Z,99.90
2018-07-04T05:55:05.548Z,99.90
2018-07-04T05:56:21.144Z,99.90
2018-07-04T05:57:36.586Z,99.90
2018-07-04T05:58:51.976Z,99.90
2018-07-04T06:00:07.524Z,99.90
2018-07-04T06:01:22.993Z,99.90
2018-07-04T06:02:38.552Z,99.90
2018-07-04T06:03:53.944Z,99.90
2018-07-04T06:05:09.367Z,99.90
2018-07-04T06:06:25.078Z,99.90
2018-07-04T06:07:40.675Z,99.90
2018-07-04T06:08:56.007Z,99.90
2018-07-04T06:10:11.291Z,99.90
2018-07-04T06:11:26.659Z,99.90
2018-07-04T06:12:42.088Z,99.90
2018-07-04T06:13:57.614Z,99.90
2018-07-04T06:15:13.116Z,99.90
2018-07-04T06:16:28.516Z,99.90
2018-07-04T06:17:43.924Z,99.90
2018-07-04T06:18:59.309Z,99.90
2018-07-04T06:20:14.707Z,99.90
2018-07-04T06:21:30.144Z,99.90
2018-07-04T06:22:45.421Z,99.80
2018-07-04T06:24:00.807Z,99.60
2018-07-04T06:25:16.167Z,99.50
2018-07-04T06:26:31.661Z,99.40
2018-07-04T06:27:47.730Z,99.10
2018-07-04T06:29:03.211Z,98.90
2018-07-04T06:30:18.530Z,99.00
2018-07-04T06:31:33.866Z,98.80
2018-07-04T06:32:49.210Z,98.70
2018-07-04T06:34:04.547Z,98.60
2018-07-04T06:35:19.705Z,98.60
2018-07-04T06:36:35.179Z,98.80
2018-07-04T06:37:40.423Z,99.00
2018-07-04T06:38:43.396Z,99.00
2018-07-04T06:39:46.477Z,98.90
2018-07-04T06:40:49.457Z,98.80
2018-07-04T06:41:52.423Z,98.60
2018-07-04T06:42:55.400Z,98.60
2018-07-04T06:43:58.477Z,98.50
2018-07-04T06:45:01.469Z,98.30
2018-07-04T06:46:04.468Z,98.00
2018-07-04T06:47:07.448Z,97.90
2018-07-04T06:48:10.419Z,98.10
2018-07-04T06:49:13.455Z,98.20
2018-07-04T06:50:16.397Z,98.20
2018-07-04T06:51:19.399Z,98.10
2018-07-04T06:52:22.498Z,98.10
2018-07-04T06:53:25.520Z,97.90
2018-07-04T06:54:28.555Z,97.80
2018-07-04T06:55:31.507Z,97.90
2018-07-04T06:56:34.486Z,97.80
2018-07-04T06:57:37.446Z,97.70
2018-07-04T06:58:40.452Z,97.60
2018-07-04T06:59:43.419Z,97.70
2018-07-04T07:00:46.577Z,97.40
2018-07-04T07:01:49.574Z,97.30
2018-07-04T07:03:05.058Z,97.20
2018-07-04T07:04:20.267Z,97.30
2018-07-04T07:05:35.588Z,97.20
2018-07-04T07:06:51.060Z,97.10
2018-07-04T07:08:06.508Z,97.10
2018-07-04T07:09:21.821Z,97.10
2018-07-04T07:10:37.086Z,97.00
2018-07-04T07:11:52.481Z,97.10
2018-07-04T07:13:07.914Z,97.10
2018-07-04T07:14:23.235Z,97.10
2018-07-04T07:15:38.550Z,97.10
2018-07-04T07:16:53.983Z,97.10
2018-07-04T07:18:09.861Z,97.40
2018-07-04T07:19:25.363Z,97.30
2018-07-04T07:20:40.707Z,97.30
2018-07-04T07:21:56.033Z,97.20
2018-07-04T07:23:11.373Z,97.20
2018-07-04T07:24:26.959Z,97.00
2018-07-04T07:25:42.526Z,97.10
2018-07-04T07:26:57.877Z,97.30
2018-07-04T07:28:13.178Z,97.30
2018-07-04T07:29:28.527Z,97.50
2018-07-04T07:30:43.803Z,97.60
2018-07-04T07:31:59.075Z,97.40
2018-07-04T07:33:14.467Z,97.40
2018-07-04T07:34:29.910Z,97.50
2018-07-04T07:35:45.288Z,97.30
2018-07-04T07:37:00.731Z,97.50
2018-07-04T07:38:16.175Z,97.30
2018-07-04T07:39:31.534Z,97.30
2018-07-04T07:40:46.827Z,97.50
2018-07-04T07:42:02.512Z,97.50
2018-07-04T07:43:17.833Z,97.60
2018-07-04T07:44:33.169Z,97.40
2018-07-04T07:45:48.518Z,97.30
2018-07-04T07:47:04.014Z,97.30
2018-07-04T07:48:19.312Z,97.00
2018-07-04T07:49:34.816Z,96.90
2018-07-04T07:50:50.061Z,96.50
2018-07-04T07:52:05.314Z,96.20
2018-07-04T07:53:20.684Z,96.10
2018-07-04T07:54:36.055Z,96.20
2018-07-04T07:55:51.447Z,95.80
2018-07-04T07:57:06.710Z,95.60
2018-07-04T07:58:22.018Z,95.30
2018-07-04T07:59:37.652Z,95.10
2018-07-04T08:00:53.075Z,95.50
2018-07-04T08:03:17.732Z,95.00
2018-07-04T08:04:33.066Z,94.90
2018-07-04T08:05:48.659Z,95.10
2018-07-04T08:07:04.087Z,95.20
2018-07-04T08:08:19.393Z,94.90
2018-07-04T08:09:34.767Z,95.20
2018-07-04T08:10:50.094Z,94.70
2018-07-04T08:12:05.434Z,94.80
2018-07-04T08:13:20.985Z,95.00
2018-07-04T08:14:36.832Z,94.90
2018-07-04T08:15:52.244Z,94.70
2018-07-04T08:17:07.676Z,94.70
2018-07-04T08:18:23.124Z,94.60
2018-07-04T08:19:38.612Z,94.80
2018-07-04T08:20:54.015Z,95.00
2018-07-04T08:22:09.670Z,94.80
2018-07-04T08:24:28.717Z,94.90
2018-07-04T08:25:44.102Z,95.10
2018-07-04T08:26:59.723Z,95.30
2018-07-04T08:28:15.049Z,95.50
2018-07-04T08:29:30.326Z,95.50
2018-07-04T08:30:45.829Z,95.50
2018-07-04T08:32:01.299Z,95.60
2018-07-04T08:33:16.679Z,95.70
2018-07-04T08:34:32.083Z,95.50
2018-07-04T08:35:47.538Z,95.60
2018-07-04T08:37:03.202Z,95.70
2018-07-04T08:38:18.580Z,95.80
2018-07-04T08:39:33.994Z,95.80
2018-07-04T08:40:49.515Z,95.70
2018-07-04T08:42:04.953Z,95.70
2018-07-04T08:43:20.382Z,96.00
2018-07-04T08:44:35.783Z,96.00
2018-07-04T08:45:51.034Z,95.90
2018-07-04T08:47:06.685Z,95.80
2018-07-04T08:48:21.992Z,95.90
2018-07-04T08:49:37.394Z,95.70
2018-07-04T08:50:52.706Z,95.70
2018-07-04T08:52:08.099Z,95.70
2018-07-04T08:53:23.366Z,95.60
2018-07-04T08:54:38.941Z,95.40
2018-07-04T08:55:54.353Z,95.10
2018-07-04T08:57:09.688Z,95.50
2018-07-04T08:58:25.120Z,95.80
2018-07-04T08:59:40.337Z,96.20
2018-07-04T09:00:55.640Z,96.40
2018-07-04T09:02:10.907Z,96.10
2018-07-04T09:03:26.325Z,96.10
2018-07-04T09:04:41.800Z,95.60
2018-07-04T09:05:57.107Z,95.70
2018-07-04T09:07:12.386Z,95.50
2018-07-04T09:08:27.796Z,95.50
2018-07-04T09:09:43.271Z,94.90
2018-07-04T09:10:58.628Z,94.30
2018-07-04T09:12:13.983Z,94.20
2018-07-04T09:13:29.327Z,94.30
2018-07-04T09:14:44.820Z,94.60
2018-07-04T09:16:00.189Z,94.50
2018-07-04T09:17:15.506Z,94.40
2018-07-04T09:18:30.938Z,94.20
2018-07-04T09:19:46.159Z,94.00
2018-07-04T09:21:01.441Z,93.90
2018-07-04T09:22:16.838Z,94.20
2018-07-04T09:23:32.181Z,94.10
2018-07-04T09:24:47.572Z,94.00
2018-07-04T09:26:03.085Z,93.80
2018-07-04T09:27:18.565Z,93.80
2018-07-04T09:28:33.926Z,93.50
2018-07-04T09:29:49.529Z,93.70
2018-07-04T09:31:05.245Z,93.80
2018-07-04T09:32:20.682Z,93.70
2018-07-04T09:33:35.929Z,93.10
2018-07-04T09:34:51.283Z,92.90
2018-07-04T09:36:06.640Z,92.80
2018-07-04T09:37:22.021Z,93.30
2018-07-04T09:38:37.400Z,93.40
2018-07-04T09:39:52.897Z,93.40
2018-07-04T09:41:08.091Z,93.70
2018-07-04T09:42:23.466Z,93.40
2018-07-04T09:43:38.874Z,93.50
2018-07-04T09:44:54.366Z,93.60
2018-07-04T09:46:09.868Z,93.40
2018-07-04T09:47:25.368Z,93.20
2018-07-04T09:48:40.723Z,92.30
2018-07-04T09:49:56.102Z,92.80
2018-07-04T09:51:11.487Z,92.60
2018-07-04T09:52:26.956Z,92.40
2018-07-04T09:53:42.486Z,92.30
2018-07-04T09:54:57.823Z,92.10
2018-07-04T09:56:13.335Z,92.20
2018-07-04T09:57:28.731Z,92.10
2018-07-04T09:58:44.040Z,91.80
2018-07-04T09:59:59.394Z,91.50
2018-07-04T10:01:20.388Z,91.10
2018-07-04T10:02:35.747Z,91.10
2018-07-04T10:03:51.143Z,91.40
2018-07-04T10:05:06.530Z,91.40
2018-07-04T10:06:22.013Z,91.50
2018-07-04T10:07:37.437Z,91.90
2018-07-04T10:08:52.921Z,91.90
2018-07-04T10:10:08.241Z,91.70
2018-07-04T10:11:23.733Z,92.10
2018-07-04T10:12:39.384Z,91.80
2018-07-04T10:13:54.823Z,92.10
2018-07-04T10:15:10.116Z,92.20
2018-07-04T10:16:25.277Z,92.40
2018-07-04T10:17:40.734Z,92.30
2018-07-04T10:18:56.092Z,92.30
2018-07-04T10:20:11.599Z,92.40
2018-07-04T10:21:27.070Z,92.60
2018-07-04T10:22:42.618Z,92.50
2018-07-04T10:23:58.056Z,92.60
2018-07-04T10:25:13.356Z,92.60
2018-07-04T10:26:28.698Z,91.90
2018-07-04T10:27:44.077Z,92.50
2018-07-04T10:28:59.590Z,92.00
2018-07-04T10:30:14.881Z,92.40
2018-07-04T10:31:30.239Z,92.40
2018-07-04T10:32:45.700Z,92.90
2018-07-04T10:34:01.151Z,92.80
2018-07-04T10:35:16.607Z,92.60
2018-07-04T10:36:31.828Z,92.10
2018-07-04T10:37:47.311Z,92.20
2018-07-04T10:39:02.969Z,92.70
2018-07-04T10:40:18.204Z,91.90
2018-07-04T10:41:33.589Z,92.10
2018-07-04T10:42:49.073Z,91.80
2018-07-04T10:44:04.416Z,90.40
2018-07-04T10:45:19.631Z,90.50
2018-07-04T10:46:34.972Z,90.60
2018-07-04T10:47:50.432Z,90.60
2018-07-04T10:49:05.865Z,91.00
2018-07-04T10:50:21.251Z,90.40
2018-07-04T10:51:36.717Z,90.50
2018-07-04T10:52:52.215Z,90.60
2018-07-04T10:54:07.603Z,90.20
2018-07-04T10:55:23.075Z,90.50
2018-07-04T10:56:38.445Z,90.00
2018-07-04T10:57:53.980Z,89.80
2018-07-04T10:59:09.463Z,89.80
2018-07-04T11:00:24.758Z,89.40
2018-07-04T11:01:40.216Z,88.10
2018-07-04T11:02:55.555Z,86.90
2018-07-04T11:04:11.102Z,86.70
2018-07-04T11:05:26.432Z,87.50
2018-07-04T11:06:42.239Z,87.70
2018-07-04T11:07:57.632Z,87.70
2018-07-04T11:09:12.985Z,86.90
2018-07-04T11:10:28.309Z,85.70
2018-07-04T11:11:43.886Z,85.40
2018-07-04T11:12:59.243Z,85.10
2018-07-04T11:14:14.619Z,85.50
2018-07-04T11:15:29.936Z,86.10
2018-07-04T11:16:45.244Z,86.70
2018-07-04T11:18:00.594Z,87.30
2018-07-04T11:20:25.153Z,87.80
2018-07-04T11:21:40.505Z,88.10
2018-07-04T11:22:56.047Z,88.90
2018-07-04T11:24:11.414Z,89.40
2018-07-04T11:25:26.702Z,89.30
2018-07-04T11:26:42.068Z,89.90
2018-07-04T11:27:57.511Z,89.60
2018-07-04T11:29:13.078Z,90.00
2018-07-04T11:30:28.396Z,90.10
2018-07-04T11:31:43.760Z,89.40
2018-07-04T11:32:59.166Z,88.50
2018-07-04T11:34:14.554Z,88.40
2018-07-04T11:35:29.888Z,89.10
2018-07-04T11:36:45.436Z,88.70
2018-07-04T11:38:00.762Z,88.30
2018-07-04T11:39:16.130Z,88.80
2018-07-04T11:40:31.626Z,88.90
2018-07-04T11:41:47.109Z,88.20
2018-07-04T11:43:02.390Z,86.00
2018-07-04T11:44:17.747Z,86.40
2018-07-04T11:45:33.165Z,86.30
2018-07-04T11:46:36.145Z,86.50
2018-07-04T11:47:39.122Z,85.30
2018-07-04T11:48:42.129Z,84.80
2018-07-04T11:49:45.130Z,85.10
2018-07-04T11:50:48.074Z,85.60
2018-07-04T11:51:51.059Z,85.50
2018-07-04T11:52:54.028Z,86.10
2018-07-04T11:53:57.426Z,86.50
2018-07-04T11:55:00.422Z,86.80
2018-07-04T11:56:03.513Z,86.20
2018-07-04T11:57:06.515Z,85.80
2018-07-04T11:58:09.494Z,86.50
2018-07-04T11:59:12.428Z,85.20
2018-07-04T12:00:15.393Z,85.90
2018-07-04T12:01:18.366Z,86.30
2018-07-04T12:02:21.363Z,85.30
2018-07-04T12:03:24.349Z,85.10
2018-07-04T12:04:39.684Z,83.80
2018-07-04T12:05:55.572Z,83.10
2018-07-04T12:07:06.936Z,83.80
2018-07-04T12:08:09.908Z,83.90
2018-07-04T12:09:12.889Z,81.60
2018-07-04T12:10:15.849Z,81.30
2018-07-04T12:11:18.792Z,82.10
2018-07-04T12:13:26.020Z,80.30
2018-07-04T12:14:29.440Z,79.60
2018-07-04T12:15:32.406Z,79.20
2018-07-04T12:16:35.388Z,79.50
2018-07-04T12:17:38.371Z,80.10
2018-07-04T12:18:41.324Z,79.40
2018-07-04T12:19:44.293Z,80.00
2018-07-04T12:20:47.298Z,79.20
2018-07-04T12:21:50.275Z,79.30
2018-07-04T12:22:53.255Z,79.60
2018-07-04T12:23:56.273Z,79.70
2018-07-04T12:24:59.258Z,79.70
2018-07-04T12:26:02.222Z,78.30
2018-07-04T12:27:05.180Z,78.50
2018-07-04T12:28:08.361Z,78.40
2018-07-04T12:29:11.653Z,78.70
2018-07-04T12:30:14.648Z,79.10
2018-07-04T12:31:17.616Z,79.40
2018-07-04T12:32:20.605Z,79.50
2018-07-04T12:33:23.607Z,79.80
2018-07-04T12:34:26.577Z,78.90
2018-07-04T12:35:29.559Z,80.00
2018-07-04T12:36:32.852Z,80.70
2018-07-04T12:37:35.845Z,81.10
2018-07-04T12:38:38.790Z,81.80
2018-07-04T12:39:41.738Z,82.70
2018-07-04T12:40:44.734Z,83.00
2018-07-04T12:41:47.705Z,83.20
2018-07-04T12:42:50.691Z,84.00
2018-07-04T12:43:53.650Z,84.80
2018-07-04T12:44:56.632Z,84.90
2018-07-04T12:45:59.602Z,85.00
2018-07-04T12:48:05.698Z,84.00
2018-07-04T12:49:08.697Z,83.10
2018-07-04T12:50:24.101Z,83.90
2018-07-04T12:51:27.062Z,83.50
2018-07-04T12:52:30.030Z,81.50
2018-07-04T12:53:33.016Z,82.20
2018-07-04T12:55:57.288Z,82.90
2018-07-04T12:57:12.697Z,83.20
2018-07-04T12:58:28.081Z,84.00
2018-07-04T12:59:43.718Z,84.60
2018-07-04T13:00:59.344Z,85.40
2018-07-04T13:02:14.867Z,85.90
2018-07-04T13:04:39.427Z,86.50
2018-07-04T13:05:54.798Z,86.60
2018-07-04T13:07:10.253Z,86.80
2018-07-04T13:08:25.668Z,87.00
2018-07-04T13:09:41.116Z,86.10
2018-07-04T13:10:56.503Z,85.40
2018-07-04T13:12:12.156Z,84.50
2018-07-04T13:13:27.602Z,83.70
2018-07-04T13:14:43.270Z,84.40
2018-07-04T13:15:58.713Z,85.00
2018-07-04T13:17:14.084Z,84.60
2018-07-04T13:18:29.374Z,85.00
2018-07-04T13:19:44.862Z,84.20
2018-07-04T13:22:09.534Z,84.00
2018-07-04T13:23:24.881Z,84.00
2018-07-04T13:24:40.311Z,83.40
2018-07-04T13:27:05.824Z,84.10
2018-07-04T13:28:21.412Z,84.20
2018-07-04T13:29:36.775Z,84.70
2018-07-04T13:30:52.087Z,84.70
2018-07-04T13:32:07.770Z,85.10
2018-07-04T13:33:23.005Z,84.80
2018-07-04T13:34:38.294Z,85.20
2018-07-04T13:35:53.767Z,85.20
2018-07-04T13:37:09.100Z,85.60
2018-07-04T13:38:24.573Z,85.90
2018-07-04T13:39:39.889Z,86.20
2018-07-04T13:40:55.404Z,86.30
2018-07-04T13:42:10.734Z,86.70
2018-07-04T13:43:26.028Z,87.30
2018-07-04T13:44:41.358Z,87.60
2018-07-04T13:45:56.696Z,87.60
2018-07-04T13:47:12.049Z,88.30
2018-07-04T13:48:27.296Z,88.50
2018-07-04T13:49:42.921Z,89.00
2018-07-04T13:50:58.380Z,89.40
2018-07-04T13:52:13.596Z,89.50
2018-07-04T13:53:28.901Z,89.60
2018-07-04T13:54:44.427Z,89.90
2018-07-04T13:55:59.908Z,89.80
2018-07-04T13:57:15.555Z,87.10
2018-07-04T13:58:31.030Z,87.20
2018-07-04T14:00:55.520Z,85.40
2018-07-04T14:02:10.922Z,84.00
2018-07-04T14:03:26.159Z,83.90
2018-07-04T14:04:42.596Z,82.90
2018-07-04T14:05:57.961Z,82.40
2018-07-04T14:07:13.356Z,81.80
2018-07-04T14:08:28.920Z,81.40
2018-07-04T14:09:44.537Z,81.90
2018-07-04T14:11:00.067Z,80.20
2018-07-04T14:12:15.485Z,80.30
2018-07-04T14:13:30.858Z,79.70
2018-07-04T14:14:46.314Z,79.60
2018-07-04T14:16:01.603Z,79.70
2018-07-04T14:17:16.846Z,78.30
2018-07-04T14:18:32.236Z,77.40
2018-07-04T14:19:47.499Z,76.60
2018-07-04T14:21:02.893Z,76.40
2018-07-04T14:22:18.364Z,77.00
2018-07-04T14:23:33.731Z,76.80
2018-07-04T14:24:49.254Z,79.00
2018-07-04T14:26:04.704Z,81.30
2018-07-04T14:27:20.077Z,82.10
2018-07-04T14:28:35.570Z,81.30
2018-07-04T14:29:50.979Z,82.20
2018-07-04T14:31:06.388Z,82.30
2018-07-04T14:32:21.790Z,81.90
2018-07-04T14:33:37.057Z,80.30
2018-07-04T14:34:52.536Z,79.70
2018-07-04T14:36:08.170Z,77.30
2018-07-04T14:37:23.671Z,76.50
2018-07-04T14:38:39.106Z,76.40
2018-07-04T14:39:54.523Z,75.10
2018-07-04T14:41:09.925Z,74.40
2018-07-04T14:42:25.260Z,73.40
2018-07-04T14:43:40.653Z,74.00
2018-07-04T14:44:55.989Z,74.90
2018-07-04T14:46:11.491Z,75.30
2018-07-04T14:47:26.943Z,75.80
2018-07-04T14:48:42.241Z,75.80
2018-07-04T14:49:57.576Z,75.90
2018-07-04T14:51:13.073Z,76.50
2018-07-04T14:52:28.552Z,77.40
2018-07-04T14:53:43.693Z,78.10
2018-07-04T14:54:59.133Z,78.70
2018-07-04T14:56:14.539Z,76.40
2018-07-04T14:57:29.919Z,77.50
2018-07-04T14:58:45.330Z,78.10
2018-07-04T15:00:00.883Z,77.40
2018-07-04T15:01:16.377Z,77.70
2018-07-04T15:02:32.721Z,77.90
2018-07-04T15:03:48.036Z,78.40
2018-07-04T15:05:03.455Z,78.80
2018-07-04T15:06:19.007Z,78.90
2018-07-04T15:07:34.407Z,79.10
2018-07-04T15:08:49.919Z,77.40
2018-07-04T15:10:05.420Z,77.80
2018-07-04T15:11:21.032Z,76.50
2018-07-04T15:12:36.454Z,76.50
2018-07-04T15:14:55.123Z,76.30
2018-07-04T15:16:10.785Z,75.40
2018-07-04T15:17:26.354Z,76.50
2018-07-04T15:18:42.163Z,76.90
2018-07-04T15:19:57.528Z,76.10
2018-07-04T15:21:12.799Z,75.60
2018-07-04T15:22:28.520Z,75.70
2018-07-04T15:23:43.865Z,76.00
2018-07-04T15:24:59.498Z,76.40
2018-07-04T15:26:15.249Z,75.70
2018-07-04T15:27:30.808Z,75.10
2018-07-04T15:28:46.102Z,75.10
2018-07-04T15:30:01.484Z,75.50
2018-07-04T15:31:16.891Z,75.40
2018-07-04T15:32:32.263Z,75.60
2018-07-04T15:33:47.669Z,74.60
2018-07-04T15:35:03.254Z,74.40
2018-07-04T15:36:18.662Z,75.00
2018-07-04T15:37:34.171Z,75.30
2018-07-04T15:38:49.542Z,76.40
2018-07-04T15:40:04.975Z,76.30
2018-07-04T15:41:20.295Z,76.40
2018-07-04T15:42:35.753Z,76.00
2018-07-04T15:43:51.361Z,75.40
2018-07-04T15:45:06.719Z,75.70
2018-07-04T15:46:22.257Z,76.10
2018-07-04T15:47:37.641Z,76.20
2018-07-04T15:48:53.085Z,76.80
2018-07-04T15:50:08.720Z,76.10
2018-07-04T15:51:24.577Z,76.20
2018-07-04T15:52:39.914Z,75.40
2018-07-04T15:53:55.251Z,75.40
2018-07-04T15:55:10.759Z,75.00
2018-07-04T15:56:26.137Z,73.90
2018-07-04T15:57:41.558Z,73.90
2018-07-04T15:58:56.889Z,73.50
2018-07-04T16:00:12.210Z,72.50
2018-07-04T16:01:27.658Z,71.20
2018-07-04T16:02:43.023Z,70.10
2018-07-04T16:03:58.424Z,69.90
2018-07-04T16:05:13.745Z,67.90
2018-07-04T16:06:29.270Z,66.60
2018-07-04T16:07:44.678Z,64.90
2018-07-04T16:09:00.187Z,64.10